sensor_id;sensor_type;location;lat;lon;timestamp;P1;durP1;ratioP1;P2;durP2;ratioP2
54699;SDS011;40599;53.132;6.090;2022-07-22T00:00:00;12.97;;;3.13;;
54699;SDS011;40599;53.132;6.090;2022-07-22T00:02:26;10.10;;;3.00;;
54699;SDS011;40599;53.132;6.090;2022-07-22T00:04:52;13.13;;;3.27;;
54699;SDS011;40599;53.132;6.090;2022-07-22T00:07:17;17.70;;;3.27;;
54699;SDS011;40599;53.132;6.090;2022-07-22T00:09:43;10.33;;;3.03;;
54699;SDS011;40599;53.132;6.090;2022-07-22T00:12:09;11.27;;;2.77;;
54699;SDS011;40599;53.132;6.090;2022-07-22T00:14:35;13.45;;;3.22;;
54699;SDS011;40599;53.132;6.090;2022-07-22T00:17:00;12.43;;;3.87;;
54699;SDS011;40599;53.132;6.090;2022-07-22T00:19:26;10.97;;;2.80;;
54699;SDS011;40599;53.132;6.090;2022-07-22T00:21:52;11.43;;;3.33;;
54699;SDS011;40599;53.132;6.090;2022-07-22T00:24:18;8.63;;;2.35;;
54699;SDS011;40599;53.132;6.090;2022-07-22T00:26:44;9.35;;;2.83;;
54699;SDS011;40599;53.132;6.090;2022-07-22T00:29:10;10.00;;;2.83;;
54699;SDS011;40599;53.132;6.090;2022-07-22T00:31:36;8.63;;;2.60;;
54699;SDS011;40599;53.132;6.090;2022-07-22T00:34:02;12.20;;;3.10;;
54699;SDS011;40599;53.132;6.090;2022-07-22T00:36:28;10.15;;;2.95;;
54699;SDS011;40599;53.132;6.090;2022-07-22T00:41:20;7.63;;;2.50;;
54699;SDS011;40599;53.132;6.090;2022-07-22T00:43:50;8.80;;;2.40;;
54699;SDS011;40599;53.132;6.090;2022-07-22T00:46:23;11.10;;;3.13;;
54699;SDS011;40599;53.132;6.090;2022-07-22T00:48:49;10.90;;;2.42;;
54699;SDS011;40599;53.132;6.090;2022-07-22T00:51:16;11.65;;;3.05;;
54699;SDS011;40599;53.132;6.090;2022-07-22T00:53:42;9.07;;;2.70;;
54699;SDS011;40599;53.132;6.090;2022-07-22T00:56:09;13.43;;;2.78;;
54699;SDS011;40599;53.132;6.090;2022-07-22T00:58:35;6.82;;;2.67;;
54699;SDS011;40599;53.132;6.090;2022-07-22T01:01:01;9.50;;;2.43;;
54699;SDS011;40599;53.132;6.090;2022-07-22T01:03:26;10.50;;;2.30;;
54699;SDS011;40599;53.132;6.090;2022-07-22T01:05:52;10.77;;;2.65;;
54699;SDS011;40599;53.132;6.090;2022-07-22T01:08:18;7.70;;;2.83;;
54699;SDS011;40599;53.132;6.090;2022-07-22T01:10:44;8.00;;;2.47;;
54699;SDS011;40599;53.132;6.090;2022-07-22T01:13:09;13.33;;;2.50;;
54699;SDS011;40599;53.132;6.090;2022-07-22T01:15:35;16.40;;;3.20;;
54699;SDS011;40599;53.132;6.090;2022-07-22T01:18:01;14.17;;;2.30;;
54699;SDS011;40599;53.132;6.090;2022-07-22T01:20:27;8.23;;;2.75;;
54699;SDS011;40599;53.132;6.090;2022-07-22T01:22:53;8.63;;;2.40;;
54699;SDS011;40599;53.132;6.090;2022-07-22T01:25:18;6.30;;;2.67;;
54699;SDS011;40599;53.132;6.090;2022-07-22T01:27:44;10.83;;;2.73;;
54699;SDS011;40599;53.132;6.090;2022-07-22T01:30:10;14.77;;;2.80;;
54699;SDS011;40599;53.132;6.090;2022-07-22T01:32:36;10.48;;;2.78;;
54699;SDS011;40599;53.132;6.090;2022-07-22T01:35:02;6.20;;;2.27;;
54699;SDS011;40599;53.132;6.090;2022-07-22T01:37:28;8.45;;;2.53;;
54699;SDS011;40599;53.132;6.090;2022-07-22T01:39:54;11.23;;;2.30;;
54699;SDS011;40599;53.132;6.090;2022-07-22T01:42:19;8.23;;;2.80;;
54699;SDS011;40599;53.132;6.090;2022-07-22T01:44:45;10.17;;;2.93;;
54699;SDS011;40599;53.132;6.090;2022-07-22T01:47:11;10.50;;;2.83;;
54699;SDS011;40599;53.132;6.090;2022-07-22T01:49:37;7.80;;;2.77;;
54699;SDS011;40599;53.132;6.090;2022-07-22T01:52:03;13.27;;;2.87;;
54699;SDS011;40599;53.132;6.090;2022-07-22T01:56:55;9.23;;;3.23;;
54699;SDS011;40599;53.132;6.090;2022-07-22T01:59:21;10.80;;;3.30;;
54699;SDS011;40599;53.132;6.090;2022-07-22T02:01:47;9.17;;;2.80;;
54699;SDS011;40599;53.132;6.090;2022-07-22T02:04:13;11.60;;;2.90;;
54699;SDS011;40599;53.132;6.090;2022-07-22T02:06:39;9.33;;;2.80;;
54699;SDS011;40599;53.132;6.090;2022-07-22T02:09:05;8.50;;;2.83;;
54699;SDS011;40599;53.132;6.090;2022-07-22T02:11:31;11.03;;;2.80;;
54699;SDS011;40599;53.132;6.090;2022-07-22T02:13:57;9.70;;;2.80;;
54699;SDS011;40599;53.132;6.090;2022-07-22T02:16:23;8.48;;;2.83;;
54699;SDS011;40599;53.132;6.090;2022-07-22T02:18:49;8.90;;;2.90;;
54699;SDS011;40599;53.132;6.090;2022-07-22T02:21:15;13.98;;;2.60;;
54699;SDS011;40599;53.132;6.090;2022-07-22T02:23:41;10.87;;;2.83;;
54699;SDS011;40599;53.132;6.090;2022-07-22T02:26:07;11.38;;;2.78;;
54699;SDS011;40599;53.132;6.090;2022-07-22T02:28:33;9.47;;;3.00;;
54699;SDS011;40599;53.132;6.090;2022-07-22T02:30:59;7.90;;;2.97;;
54699;SDS011;40599;53.132;6.090;2022-07-22T02:33:24;7.93;;;3.10;;
54699;SDS011;40599;53.132;6.090;2022-07-22T02:35:50;5.30;;;2.70;;
54699;SDS011;40599;53.132;6.090;2022-07-22T02:38:16;11.33;;;2.90;;
54699;SDS011;40599;53.132;6.090;2022-07-22T02:40:42;7.97;;;2.77;;
54699;SDS011;40599;53.132;6.090;2022-07-22T02:43:07;8.07;;;2.73;;
54699;SDS011;40599;53.132;6.090;2022-07-22T02:45:33;11.27;;;2.93;;
54699;SDS011;40599;53.132;6.090;2022-07-22T02:47:59;8.32;;;2.83;;
54699;SDS011;40599;53.132;6.090;2022-07-22T02:50:25;7.57;;;2.70;;
54699;SDS011;40599;53.132;6.090;2022-07-22T02:52:51;9.20;;;2.70;;
54699;SDS011;40599;53.132;6.090;2022-07-22T02:55:17;9.20;;;2.58;;
54699;SDS011;40599;53.132;6.090;2022-07-22T02:57:43;12.43;;;2.85;;
54699;SDS011;40599;53.132;6.090;2022-07-22T03:00:10;10.80;;;2.80;;
54699;SDS011;40599;53.132;6.090;2022-07-22T03:02:37;10.00;;;3.10;;
54699;SDS011;40599;53.132;6.090;2022-07-22T03:05:04;6.03;;;2.78;;
54699;SDS011;40599;53.132;6.090;2022-07-22T03:07:31;9.13;;;3.00;;
54699;SDS011;40599;53.132;6.090;2022-07-22T03:09:57;10.33;;;2.87;;
54699;SDS011;40599;53.132;6.090;2022-07-22T03:12:23;10.27;;;2.85;;
54699;SDS011;40599;53.132;6.090;2022-07-22T03:14:49;9.40;;;2.83;;
54699;SDS011;40599;53.132;6.090;2022-07-22T03:17:15;5.40;;;2.30;;
54699;SDS011;40599;53.132;6.090;2022-07-22T03:19:41;8.67;;;2.70;;
54699;SDS011;40599;53.132;6.090;2022-07-22T03:22:06;7.10;;;2.47;;
54699;SDS011;40599;53.132;6.090;2022-07-22T03:24:33;13.77;;;3.10;;
54699;SDS011;40599;53.132;6.090;2022-07-22T03:26:58;6.40;;;2.57;;
54699;SDS011;40599;53.132;6.090;2022-07-22T03:29:24;12.17;;;2.80;;
54699;SDS011;40599;53.132;6.090;2022-07-22T03:31:50;8.00;;;2.80;;
54699;SDS011;40599;53.132;6.090;2022-07-22T03:34:16;5.33;;;2.43;;
54699;SDS011;40599;53.132;6.090;2022-07-22T03:36:41;7.57;;;2.30;;
54699;SDS011;40599;53.132;6.090;2022-07-22T03:39:07;9.93;;;2.67;;
54699;SDS011;40599;53.132;6.090;2022-07-22T03:41:33;10.67;;;3.10;;
54699;SDS011;40599;53.132;6.090;2022-07-22T03:43:58;13.03;;;3.00;;
54699;SDS011;40599;53.132;6.090;2022-07-22T03:46:24;4.43;;;2.53;;
54699;SDS011;40599;53.132;6.090;2022-07-22T03:48:50;12.23;;;2.77;;
54699;SDS011;40599;53.132;6.090;2022-07-22T03:51:16;10.57;;;2.63;;
54699;SDS011;40599;53.132;6.090;2022-07-22T03:53:41;9.20;;;2.70;;
54699;SDS011;40599;53.132;6.090;2022-07-22T03:56:08;5.00;;;2.50;;
54699;SDS011;40599;53.132;6.090;2022-07-22T03:58:34;7.53;;;2.67;;
54699;SDS011;40599;53.132;6.090;2022-07-22T04:00:59;7.93;;;2.50;;
54699;SDS011;40599;53.132;6.090;2022-07-22T04:03:25;13.57;;;3.03;;
54699;SDS011;40599;53.132;6.090;2022-07-22T04:05:51;9.97;;;3.27;;
54699;SDS011;40599;53.132;6.090;2022-07-22T04:08:17;10.80;;;2.60;;
54699;SDS011;40599;53.132;6.090;2022-07-22T04:10:44;13.55;;;3.00;;
54699;SDS011;40599;53.132;6.090;2022-07-22T04:13:10;7.25;;;2.78;;
54699;SDS011;40599;53.132;6.090;2022-07-22T04:15:36;6.88;;;2.50;;
54699;SDS011;40599;53.132;6.090;2022-07-22T04:18:01;8.13;;;2.83;;
54699;SDS011;40599;53.132;6.090;2022-07-22T04:20:27;9.60;;;2.87;;
54699;SDS011;40599;53.132;6.090;2022-07-22T04:22:53;9.63;;;2.80;;
54699;SDS011;40599;53.132;6.090;2022-07-22T04:25:19;6.40;;;2.60;;
54699;SDS011;40599;53.132;6.090;2022-07-22T04:27:44;14.40;;;2.93;;
54699;SDS011;40599;53.132;6.090;2022-07-22T04:30:10;8.83;;;2.30;;
54699;SDS011;40599;53.132;6.090;2022-07-22T04:32:36;12.10;;;2.70;;
54699;SDS011;40599;53.132;6.090;2022-07-22T04:35:02;7.27;;;2.67;;
54699;SDS011;40599;53.132;6.090;2022-07-22T04:37:30;6.43;;;2.83;;
54699;SDS011;40599;53.132;6.090;2022-07-22T04:39:56;9.73;;;2.70;;
54699;SDS011;40599;53.132;6.090;2022-07-22T04:42:21;7.50;;;2.80;;
54699;SDS011;40599;53.132;6.090;2022-07-22T04:44:47;9.53;;;2.90;;
54699;SDS011;40599;53.132;6.090;2022-07-22T04:47:13;7.93;;;3.13;;
54699;SDS011;40599;53.132;6.090;2022-07-22T04:49:38;8.90;;;2.50;;
54699;SDS011;40599;53.132;6.090;2022-07-22T04:52:04;7.93;;;3.07;;
54699;SDS011;40599;53.132;6.090;2022-07-22T04:54:30;6.10;;;2.30;;
54699;SDS011;40599;53.132;6.090;2022-07-22T04:56:56;13.80;;;2.50;;
54699;SDS011;40599;53.132;6.090;2022-07-22T04:59:22;9.90;;;2.80;;
54699;SDS011;40599;53.132;6.090;2022-07-22T05:01:47;7.70;;;2.40;;
54699;SDS011;40599;53.132;6.090;2022-07-22T05:04:13;6.50;;;2.17;;
54699;SDS011;40599;53.132;6.090;2022-07-22T05:06:39;5.97;;;2.10;;
54699;SDS011;40599;53.132;6.090;2022-07-22T05:09:05;7.80;;;2.30;;
54699;SDS011;40599;53.132;6.090;2022-07-22T05:11:31;8.25;;;2.00;;
54699;SDS011;40599;53.132;6.090;2022-07-22T05:13:57;5.75;;;2.28;;
54699;SDS011;40599;53.132;6.090;2022-07-22T05:16:22;6.50;;;2.20;;
54699;SDS011;40599;53.132;6.090;2022-07-22T05:18:48;10.00;;;2.23;;
54699;SDS011;40599;53.132;6.090;2022-07-22T05:21:14;5.23;;;1.90;;
54699;SDS011;40599;53.132;6.090;2022-07-22T05:23:40;3.53;;;2.00;;
54699;SDS011;40599;53.132;6.090;2022-07-22T05:26:05;9.03;;;2.23;;
54699;SDS011;40599;53.132;6.090;2022-07-22T05:28:31;6.88;;;2.10;;
54699;SDS011;40599;53.132;6.090;2022-07-22T05:30:57;7.05;;;2.35;;
54699;SDS011;40599;53.132;6.090;2022-07-22T05:33:23;7.37;;;2.10;;
54699;SDS011;40599;53.132;6.090;2022-07-22T05:35:48;4.07;;;2.00;;
54699;SDS011;40599;53.132;6.090;2022-07-22T05:38:14;4.77;;;2.10;;
54699;SDS011;40599;53.132;6.090;2022-07-22T05:40:40;5.43;;;2.10;;
54699;SDS011;40599;53.132;6.090;2022-07-22T05:43:06;7.80;;;2.00;;
54699;SDS011;40599;53.132;6.090;2022-07-22T05:45:31;6.63;;;2.17;;
54699;SDS011;40599;53.132;6.090;2022-07-22T05:47:57;9.02;;;2.13;;
54699;SDS011;40599;53.132;6.090;2022-07-22T05:50:23;7.57;;;2.40;;
54699;SDS011;40599;53.132;6.090;2022-07-22T05:52:49;7.93;;;2.50;;
54699;SDS011;40599;53.132;6.090;2022-07-22T05:55:15;6.00;;;2.33;;
54699;SDS011;40599;53.132;6.090;2022-07-22T05:57:41;7.55;;;2.33;;
54699;SDS011;40599;53.132;6.090;2022-07-22T06:00:07;5.07;;;2.30;;
54699;SDS011;40599;53.132;6.090;2022-07-22T06:02:33;7.38;;;2.30;;
54699;SDS011;40599;53.132;6.090;2022-07-22T06:04:59;9.07;;;2.60;;
54699;SDS011;40599;53.132;6.090;2022-07-22T06:07:26;7.43;;;2.20;;
54699;SDS011;40599;53.132;6.090;2022-07-22T06:09:52;7.80;;;2.20;;
54699;SDS011;40599;53.132;6.090;2022-07-22T06:12:18;6.28;;;2.30;;
54699;SDS011;40599;53.132;6.090;2022-07-22T06:14:44;7.95;;;2.30;;
54699;SDS011;40599;53.132;6.090;2022-07-22T06:17:11;5.57;;;2.30;;
54699;SDS011;40599;53.132;6.090;2022-07-22T06:19:37;4.78;;;2.00;;
54699;SDS011;40599;53.132;6.090;2022-07-22T06:22:03;11.02;;;2.28;;
54699;SDS011;40599;53.132;6.090;2022-07-22T06:24:29;9.32;;;2.67;;
54699;SDS011;40599;53.132;6.090;2022-07-22T06:26:55;8.55;;;2.55;;
54699;SDS011;40599;53.132;6.090;2022-07-22T06:29:21;6.67;;;2.10;;
54699;SDS011;40599;53.132;6.090;2022-07-22T06:31:46;4.40;;;2.00;;
54699;SDS011;40599;53.132;6.090;2022-07-22T06:34:12;11.43;;;2.60;;
54699;SDS011;40599;53.132;6.090;2022-07-22T06:36:38;8.23;;;2.53;;
54699;SDS011;40599;53.132;6.090;2022-07-22T06:39:04;11.07;;;3.07;;
54699;SDS011;40599;53.132;6.090;2022-07-22T06:41:29;14.30;;;2.53;;
54699;SDS011;40599;53.132;6.090;2022-07-22T06:43:55;9.27;;;2.77;;
54699;SDS011;40599;53.132;6.090;2022-07-22T06:46:21;10.33;;;2.50;;
54699;SDS011;40599;53.132;6.090;2022-07-22T06:48:47;8.63;;;3.63;;
54699;SDS011;40599;53.132;6.090;2022-07-22T06:51:12;9.43;;;2.40;;
54699;SDS011;40599;53.132;6.090;2022-07-22T06:53:38;8.87;;;2.37;;
54699;SDS011;40599;53.132;6.090;2022-07-22T06:56:04;6.83;;;2.50;;
54699;SDS011;40599;53.132;6.090;2022-07-22T06:58:30;5.75;;;2.28;;
54699;SDS011;40599;53.132;6.090;2022-07-22T07:00:56;13.07;;;2.60;;
54699;SDS011;40599;53.132;6.090;2022-07-22T07:03:22;6.37;;;2.20;;
54699;SDS011;40599;53.132;6.090;2022-07-22T07:05:50;8.60;;;2.50;;
54699;SDS011;40599;53.132;6.090;2022-07-22T07:08:16;7.03;;;2.40;;
54699;SDS011;40599;53.132;6.090;2022-07-22T07:10:43;12.35;;;3.00;;
54699;SDS011;40599;53.132;6.090;2022-07-22T07:13:08;10.53;;;3.43;;
54699;SDS011;40599;53.132;6.090;2022-07-22T07:15:34;8.07;;;2.30;;
54699;SDS011;40599;53.132;6.090;2022-07-22T07:18:01;7.18;;;2.47;;
54699;SDS011;40599;53.132;6.090;2022-07-22T07:20:27;7.22;;;2.15;;
54699;SDS011;40599;53.132;6.090;2022-07-22T07:22:53;10.33;;;2.23;;
54699;SDS011;40599;53.132;6.090;2022-07-22T07:25:19;8.10;;;2.10;;
54699;SDS011;40599;53.132;6.090;2022-07-22T07:27:44;8.67;;;2.20;;
54699;SDS011;40599;53.132;6.090;2022-07-22T07:30:10;6.87;;;2.10;;
54699;SDS011;40599;53.132;6.090;2022-07-22T07:32:36;7.72;;;2.13;;
54699;SDS011;40599;53.132;6.090;2022-07-22T07:37:29;9.37;;;2.27;;
54699;SDS011;40599;53.132;6.090;2022-07-22T07:39:56;8.07;;;2.27;;
54699;SDS011;40599;53.132;6.090;2022-07-22T07:42:23;9.20;;;2.30;;
54699;SDS011;40599;53.132;6.090;2022-07-22T07:47:15;7.30;;;2.20;;
54699;SDS011;40599;53.132;6.090;2022-07-22T07:49:44;5.40;;;1.60;;
54699;SDS011;40599;53.132;6.090;2022-07-22T07:52:10;9.55;;;1.70;;
54699;SDS011;40599;53.132;6.090;2022-07-22T07:54:38;4.07;;;1.50;;
54699;SDS011;40599;53.132;6.090;2022-07-22T07:57:07;8.93;;;1.73;;
54699;SDS011;40599;53.132;6.090;2022-07-22T07:59:35;7.13;;;2.13;;
54699;SDS011;40599;53.132;6.090;2022-07-22T08:04:28;6.33;;;1.70;;
54699;SDS011;40599;53.132;6.090;2022-07-22T08:06:55;4.47;;;1.35;;
54699;SDS011;40599;53.132;6.090;2022-07-22T08:09:20;8.20;;;1.40;;
54699;SDS011;40599;53.132;6.090;2022-07-22T08:11:46;4.27;;;1.83;;
54699;SDS011;40599;53.132;6.090;2022-07-22T08:14:12;5.32;;;1.60;;
54699;SDS011;40599;53.132;6.090;2022-07-22T08:16:38;2.60;;;1.40;;
54699;SDS011;40599;53.132;6.090;2022-07-22T08:19:03;3.47;;;1.60;;
54699;SDS011;40599;53.132;6.090;2022-07-22T08:21:29;7.45;;;1.48;;
54699;SDS011;40599;53.132;6.090;2022-07-22T08:23:55;5.40;;;1.50;;
54699;SDS011;40599;53.132;6.090;2022-07-22T08:26:21;5.90;;;1.50;;
54699;SDS011;40599;53.132;6.090;2022-07-22T08:28:47;3.37;;;1.40;;
54699;SDS011;40599;53.132;6.090;2022-07-22T08:31:13;3.78;;;1.80;;
54699;SDS011;40599;53.132;6.090;2022-07-22T08:33:39;4.88;;;2.25;;
54699;SDS011;40599;53.132;6.090;2022-07-22T08:36:04;4.80;;;1.58;;
54699;SDS011;40599;53.132;6.090;2022-07-22T08:38:31;2.58;;;1.40;;
54699;SDS011;40599;53.132;6.090;2022-07-22T08:40:57;3.70;;;1.52;;
54699;SDS011;40599;53.132;6.090;2022-07-22T08:43:24;5.10;;;1.55;;
54699;SDS011;40599;53.132;6.090;2022-07-22T08:45:50;3.17;;;1.17;;
54699;SDS011;40599;53.132;6.090;2022-07-22T08:48:16;4.25;;;1.40;;
54699;SDS011;40599;53.132;6.090;2022-07-22T08:50:42;4.78;;;1.40;;
54699;SDS011;40599;53.132;6.090;2022-07-22T08:53:08;3.42;;;1.27;;
54699;SDS011;40599;53.132;6.090;2022-07-22T08:55:45;6.83;;;1.20;;
54699;SDS011;40599;53.132;6.090;2022-07-22T08:58:12;4.03;;;1.30;;
54699;SDS011;40599;53.132;6.090;2022-07-22T09:00:38;2.80;;;1.50;;
54699;SDS011;40599;53.132;6.090;2022-07-22T09:03:17;4.15;;;1.10;;
54699;SDS011;40599;53.132;6.090;2022-07-22T09:05:51;4.90;;;1.50;;
54699;SDS011;40599;53.132;6.090;2022-07-22T09:08:17;3.87;;;1.40;;
54699;SDS011;40599;53.132;6.090;2022-07-22T09:10:44;2.80;;;1.40;;
54699;SDS011;40599;53.132;6.090;2022-07-22T09:13:10;5.35;;;1.30;;
54699;SDS011;40599;53.132;6.090;2022-07-22T09:15:45;3.47;;;1.60;;
54699;SDS011;40599;53.132;6.090;2022-07-22T09:18:15;4.00;;;1.50;;
54699;SDS011;40599;53.132;6.090;2022-07-22T09:20:41;4.27;;;1.60;;
54699;SDS011;40599;53.132;6.090;2022-07-22T09:23:16;6.80;;;1.50;;
54699;SDS011;40599;53.132;6.090;2022-07-22T09:25:46;4.47;;;1.40;;
54699;SDS011;40599;53.132;6.090;2022-07-22T09:28:14;8.80;;;1.60;;
54699;SDS011;40599;53.132;6.090;2022-07-22T09:30:52;2.97;;;1.27;;
54699;SDS011;40599;53.132;6.090;2022-07-22T09:33:19;2.42;;;1.45;;
54699;SDS011;40599;53.132;6.090;2022-07-22T09:38:12;4.50;;;1.53;;
54699;SDS011;40599;53.132;6.090;2022-07-22T09:40:40;4.80;;;1.63;;
54699;SDS011;40599;53.132;6.090;2022-07-22T09:43:12;3.93;;;1.53;;
54699;SDS011;40599;53.132;6.090;2022-07-22T09:45:48;3.70;;;1.43;;
54699;SDS011;40599;53.132;6.090;2022-07-22T09:48:14;5.57;;;1.43;;
54699;SDS011;40599;53.132;6.090;2022-07-22T09:50:43;4.53;;;1.60;;
54699;SDS011;40599;53.132;6.090;2022-07-22T09:53:10;5.50;;;1.47;;
54699;SDS011;40599;53.132;6.090;2022-07-22T09:55:36;5.93;;;1.33;;
54699;SDS011;40599;53.132;6.090;2022-07-22T09:58:04;5.43;;;1.50;;
54699;SDS011;40599;53.132;6.090;2022-07-22T10:00:32;3.03;;;1.40;;
54699;SDS011;40599;53.132;6.090;2022-07-22T10:03:00;4.07;;;1.30;;
54699;SDS011;40599;53.132;6.090;2022-07-22T10:05:32;4.67;;;1.57;;
54699;SDS011;40599;53.132;6.090;2022-07-22T10:08:01;5.67;;;1.50;;
54699;SDS011;40599;53.132;6.090;2022-07-22T10:10:29;5.90;;;1.47;;
54699;SDS011;40599;53.132;6.090;2022-07-22T10:12:57;5.03;;;1.40;;
54699;SDS011;40599;53.132;6.090;2022-07-22T10:15:24;3.77;;;1.53;;
54699;SDS011;40599;53.132;6.090;2022-07-22T10:20:20;4.00;;;1.63;;
54699;SDS011;40599;53.132;6.090;2022-07-22T10:22:57;3.43;;;1.50;;
54699;SDS011;40599;53.132;6.090;2022-07-22T10:25:25;4.57;;;1.33;;
54699;SDS011;40599;53.132;6.090;2022-07-22T10:30:27;6.23;;;1.50;;
54699;SDS011;40599;53.132;6.090;2022-07-22T10:33:09;2.33;;;1.40;;
54699;SDS011;40599;53.132;6.090;2022-07-22T10:35:59;6.73;;;1.70;;
54699;SDS011;40599;53.132;6.090;2022-07-22T10:38:25;3.53;;;1.35;;
54699;SDS011;40599;53.132;6.090;2022-07-22T10:40:53;3.40;;;1.40;;
54699;SDS011;40599;53.132;6.090;2022-07-22T10:43:23;5.57;;;1.47;;
54699;SDS011;40599;53.132;6.090;2022-07-22T10:45:52;3.60;;;1.47;;
54699;SDS011;40599;53.132;6.090;2022-07-22T10:48:23;2.53;;;1.10;;
54699;SDS011;40599;53.132;6.090;2022-07-22T10:51:29;1.50;;;1.20;;
54699;SDS011;40599;53.132;6.090;2022-07-22T11:01:35;2.73;;;1.03;;
54699;SDS011;40599;53.132;6.090;2022-07-22T11:04:22;2.33;;;1.00;;
54699;SDS011;40599;53.132;6.090;2022-07-22T11:06:50;4.83;;;1.23;;
54699;SDS011;40599;53.132;6.090;2022-07-22T11:09:18;2.30;;;1.07;;
54699;SDS011;40599;53.132;6.090;2022-07-22T11:11:50;1.77;;;1.00;;
54699;SDS011;40599;53.132;6.090;2022-07-22T11:14:31;2.07;;;0.90;;
54699;SDS011;40599;53.132;6.090;2022-07-22T11:17:20;3.83;;;1.20;;
54699;SDS011;40599;53.132;6.090;2022-07-22T11:19:50;2.93;;;1.10;;
54699;SDS011;40599;53.132;6.090;2022-07-22T11:22:16;2.37;;;1.20;;
54699;SDS011;40599;53.132;6.090;2022-07-22T11:24:42;4.13;;;1.00;;
54699;SDS011;40599;53.132;6.090;2022-07-22T11:27:16;4.27;;;1.27;;
54699;SDS011;40599;53.132;6.090;2022-07-22T11:29:43;2.57;;;1.20;;
54699;SDS011;40599;53.132;6.090;2022-07-22T11:32:14;4.20;;;1.10;;
54699;SDS011;40599;53.132;6.090;2022-07-22T11:34:40;2.85;;;1.08;;
54699;SDS011;40599;53.132;6.090;2022-07-22T11:37:10;2.43;;;1.20;;
54699;SDS011;40599;53.132;6.090;2022-07-22T11:39:36;7.07;;;1.10;;
54699;SDS011;40599;53.132;6.090;2022-07-22T11:42:03;4.13;;;1.17;;
54699;SDS011;40599;53.132;6.090;2022-07-22T11:44:30;2.20;;;1.10;;
54699;SDS011;40599;53.132;6.090;2022-07-22T11:46:57;3.23;;;1.13;;
54699;SDS011;40599;53.132;6.090;2022-07-22T11:49:24;6.78;;;1.30;;
54699;SDS011;40599;53.132;6.090;2022-07-22T11:51:51;5.27;;;1.27;;
54699;SDS011;40599;53.132;6.090;2022-07-22T11:54:17;2.45;;;1.30;;
54699;SDS011;40599;53.132;6.090;2022-07-22T11:56:43;3.95;;;1.17;;
54699;SDS011;40599;53.132;6.090;2022-07-22T11:59:13;3.20;;;1.17;;
54699;SDS011;40599;53.132;6.090;2022-07-22T12:01:41;4.20;;;1.33;;
54699;SDS011;40599;53.132;6.090;2022-07-22T12:04:08;2.28;;;1.08;;
54699;SDS011;40599;53.132;6.090;2022-07-22T12:06:36;3.17;;;1.50;;
54699;SDS011;40599;53.132;6.090;2022-07-22T12:11:38;5.23;;;1.30;;
54699;SDS011;40599;53.132;6.090;2022-07-22T12:14:07;3.27;;;1.37;;
54699;SDS011;40599;53.132;6.090;2022-07-22T12:16:35;2.40;;;1.20;;
54699;SDS011;40599;53.132;6.090;2022-07-22T12:19:08;2.35;;;1.00;;
54699;SDS011;40599;53.132;6.090;2022-07-22T12:21:36;3.23;;;1.20;;
54699;SDS011;40599;53.132;6.090;2022-07-22T12:24:15;5.60;;;1.20;;
54699;SDS011;40599;53.132;6.090;2022-07-22T12:29:11;3.10;;;1.43;;
54699;SDS011;40599;53.132;6.090;2022-07-22T12:34:07;3.90;;;1.30;;
54699;SDS011;40599;53.132;6.090;2022-07-22T12:36:33;3.63;;;1.50;;
54699;SDS011;40599;53.132;6.090;2022-07-22T12:39:10;4.30;;;2.13;;
54699;SDS011;40599;53.132;6.090;2022-07-22T12:41:43;3.40;;;1.27;;
54699;SDS011;40599;53.132;6.090;2022-07-22T12:44:19;2.97;;;1.50;;
54699;SDS011;40599;53.132;6.090;2022-07-22T12:46:47;5.47;;;1.40;;
54699;SDS011;40599;53.132;6.090;2022-07-22T12:49:18;6.27;;;1.40;;
54699;SDS011;40599;53.132;6.090;2022-07-22T12:54:31;3.67;;;1.63;;
54699;SDS011;40599;53.132;6.090;2022-07-22T12:56:58;5.22;;;1.60;;
54699;SDS011;40599;53.132;6.090;2022-07-22T12:59:24;9.82;;;1.60;;
54699;SDS011;40599;53.132;6.090;2022-07-22T13:01:49;6.05;;;1.48;;
54699;SDS011;40599;53.132;6.090;2022-07-22T13:04:15;10.00;;;1.60;;
54699;SDS011;40599;53.132;6.090;2022-07-22T13:06:41;7.37;;;1.60;;
54699;SDS011;40599;53.132;6.090;2022-07-22T13:09:07;5.50;;;1.45;;
54699;SDS011;40599;53.132;6.090;2022-07-22T13:11:33;6.03;;;1.80;;
54699;SDS011;40599;53.132;6.090;2022-07-22T13:14:04;5.07;;;2.27;;
54699;SDS011;40599;53.132;6.090;2022-07-22T13:18:58;7.40;;;1.77;;
54699;SDS011;40599;53.132;6.090;2022-07-22T13:21:24;5.43;;;1.30;;
54699;SDS011;40599;53.132;6.090;2022-07-22T13:23:49;4.88;;;1.30;;
54699;SDS011;40599;53.132;6.090;2022-07-22T13:26:15;5.30;;;1.40;;
54699;SDS011;40599;53.132;6.090;2022-07-22T13:28:41;4.07;;;1.35;;
54699;SDS011;40599;53.132;6.090;2022-07-22T13:31:08;3.60;;;1.45;;
54699;SDS011;40599;53.132;6.090;2022-07-22T13:35:59;6.90;;;1.60;;
54699;SDS011;40599;53.132;6.090;2022-07-22T13:38:25;4.80;;;1.30;;
54699;SDS011;40599;53.132;6.090;2022-07-22T13:40:51;5.18;;;1.45;;
54699;SDS011;40599;53.132;6.090;2022-07-22T13:43:18;3.88;;;1.52;;
54699;SDS011;40599;53.132;6.090;2022-07-22T13:45:48;5.87;;;1.50;;
54699;SDS011;40599;53.132;6.090;2022-07-22T13:48:14;6.60;;;1.45;;
54699;SDS011;40599;53.132;6.090;2022-07-22T13:50:42;5.00;;;1.70;;
54699;SDS011;40599;53.132;6.090;2022-07-22T13:53:08;5.47;;;1.70;;
54699;SDS011;40599;53.132;6.090;2022-07-22T13:55:33;8.63;;;1.50;;
54699;SDS011;40599;53.132;6.090;2022-07-22T13:57:59;4.97;;;1.58;;
54699;SDS011;40599;53.132;6.090;2022-07-22T14:00:25;6.43;;;2.05;;
54699;SDS011;40599;53.132;6.090;2022-07-22T14:02:51;3.78;;;1.40;;
54699;SDS011;40599;53.132;6.090;2022-07-22T14:05:17;6.72;;;1.60;;
54699;SDS011;40599;53.132;6.090;2022-07-22T14:07:43;5.13;;;1.50;;
54699;SDS011;40599;53.132;6.090;2022-07-22T14:10:10;2.92;;;1.40;;
54699;SDS011;40599;53.132;6.090;2022-07-22T14:12:36;3.22;;;1.60;;
54699;SDS011;40599;53.132;6.090;2022-07-22T14:15:02;5.22;;;1.45;;
54699;SDS011;40599;53.132;6.090;2022-07-22T14:17:28;4.00;;;1.70;;
54699;SDS011;40599;53.132;6.090;2022-07-22T14:19:54;5.17;;;1.17;;
54699;SDS011;40599;53.132;6.090;2022-07-22T14:22:19;4.95;;;1.20;;
54699;SDS011;40599;53.132;6.090;2022-07-22T14:24:45;3.60;;;1.52;;
54699;SDS011;40599;53.132;6.090;2022-07-22T14:27:11;5.03;;;1.67;;
54699;SDS011;40599;53.132;6.090;2022-07-22T14:29:37;5.00;;;1.30;;
54699;SDS011;40599;53.132;6.090;2022-07-22T14:32:03;1.80;;;1.10;;
54699;SDS011;40599;53.132;6.090;2022-07-22T14:34:29;3.78;;;1.40;;
54699;SDS011;40599;53.132;6.090;2022-07-22T14:36:54;3.90;;;1.45;;
54699;SDS011;40599;53.132;6.090;2022-07-22T14:39:20;4.70;;;1.48;;
54699;SDS011;40599;53.132;6.090;2022-07-22T14:41:46;6.70;;;1.57;;
54699;SDS011;40599;53.132;6.090;2022-07-22T14:44:12;3.13;;;1.67;;
54699;SDS011;40599;53.132;6.090;2022-07-22T14:46:38;9.68;;;1.90;;
54699;SDS011;40599;53.132;6.090;2022-07-22T14:49:04;7.85;;;1.83;;
54699;SDS011;40599;53.132;6.090;2022-07-22T14:51:29;8.73;;;1.63;;
54699;SDS011;40599;53.132;6.090;2022-07-22T14:53:55;5.97;;;1.77;;
54699;SDS011;40599;53.132;6.090;2022-07-22T14:56:21;3.40;;;1.42;;
54699;SDS011;40599;53.132;6.090;2022-07-22T14:58:47;5.20;;;1.42;;
54699;SDS011;40599;53.132;6.090;2022-07-22T15:01:12;6.63;;;2.00;;
54699;SDS011;40599;53.132;6.090;2022-07-22T15:03:38;6.93;;;1.93;;
54699;SDS011;40599;53.132;6.090;2022-07-22T15:06:04;6.47;;;1.90;;
54699;SDS011;40599;53.132;6.090;2022-07-22T15:08:30;5.25;;;1.92;;
54699;SDS011;40599;53.132;6.090;2022-07-22T15:10:56;6.28;;;1.70;;
54699;SDS011;40599;53.132;6.090;2022-07-22T15:13:23;9.70;;;2.07;;
54699;SDS011;40599;53.132;6.090;2022-07-22T15:15:49;4.22;;;1.60;;
54699;SDS011;40599;53.132;6.090;2022-07-22T15:18:15;4.10;;;1.67;;
54699;SDS011;40599;53.132;6.090;2022-07-22T15:20:41;5.07;;;1.87;;
54699;SDS011;40599;53.132;6.090;2022-07-22T15:23:07;7.80;;;1.70;;
54699;SDS011;40599;53.132;6.090;2022-07-22T15:25:33;8.45;;;1.60;;